Time;durP1;ratioP1;P1;durP2;ratioP2;P2;SDS_P1;SDS_P2;PMS_P1;PMS_P2;Temp;Humidity;BMP_temperature;BMP_pressure;BME280_temperature;BME280_humidity;BME280_pressure;Samples;Min_cycle;Max_cycle;Signal;HPM_P1;HPM_P2
2021/06/13 00:01:39;;;;;;;13.43;6.23;;;12.50;99.90;;;;;;5176541;27;20193;-69
2021/06/13 00:04:26;;;;;;;10.27;6.17;;;12.50;99.90;;;;;;5176307;27;20202;-70
2021/06/13 00:07:13;;;;;;;7.37;6.17;;;12.50;99.90;;;;;;5175753;27;20582;-69
2021/06/13 00:10:01;;;;;;;13.07;6.70;;;12.50;99.90;;;;;;5175851;27;20525;-69
2021/06/13 00:12:49;;;;;;;9.27;6.50;;;12.50;99.90;;;;;;5175788;27;20207;-69
2021/06/13 00:15:36;;;;;;;13.37;7.13;;;12.50;99.90;;;;;;5168297;27;20206;-69
2021/06/13 00:18:24;;;;;;;9.07;6.53;;;12.50;99.90;;;;;;5175907;27;20209;-69
2021/06/13 00:21:12;;;;;;;11.30;7.90;;;12.60;99.90;;;;;;5175192;27;20349;-69
2021/06/13 00:23:59;;;;;;;10.67;7.30;;;12.50;99.90;;;;;;5169897;27;20196;-69
2021/06/13 00:26:46;;;;;;;10.07;7.03;;;12.50;99.90;;;;;;5176289;27;20207;-69
2021/06/13 00:29:35;;;;;;;16.77;7.70;;;12.50;99.90;;;;;;5176438;27;20198;-69
2021/06/13 00:32:22;;;;;;;16.23;7.40;;;12.60;99.90;;;;;;5176902;27;20211;-69
2021/06/13 00:35:10;;;;;;;11.43;7.60;;;12.50;99.90;;;;;;5176354;27;20382;-69
2021/06/13 00:37:57;;;;;;;15.80;7.90;;;12.50;99.90;;;;;;5175519;27;20193;-69
2021/06/13 00:40:44;;;;;;;11.07;7.53;;;12.50;99.90;;;;;;5175855;27;20197;-69
2021/06/13 00:43:31;;;;;;;13.80;7.00;;;12.50;99.90;;;;;;5166514;27;20198;-69
2021/06/13 00:46:19;;;;;;;14.60;7.73;;;12.50;99.90;;;;;;5176005;27;20213;-69
2021/06/13 00:49:06;;;;;;;9.87;6.87;;;12.60;99.90;;;;;;5175502;27;20198;-69
2021/06/13 00:51:53;;;;;;;10.73;7.03;;;12.60;99.90;;;;;;5175782;27;20317;-69
2021/06/13 00:54:40;;;;;;;12.87;7.97;;;12.60;99.90;;;;;;5174001;27;20230;-69
2021/06/13 00:57:27;;;;;;;10.10;7.57;;;12.60;99.90;;;;;;5175041;27;20275;-69
2021/06/13 01:00:16;;;;;;;16.27;8.10;;;12.60;99.90;;;;;;5173921;27;20190;-69
2021/06/13 01:03:04;;;;;;;12.87;8.40;;;12.60;99.90;;;;;;5168456;27;20197;-69
2021/06/13 01:05:52;;;;;;;10.37;7.60;;;12.60;99.90;;;;;;5153551;27;20200;-69
2021/06/13 01:08:45;;;;;;;10.70;7.40;;;12.50;99.90;;;;;;5175644;27;20649;-69
2021/06/13 01:11:35;;;;;;;11.37;8.03;;;12.60;99.90;;;;;;5175103;27;20682;-69
2021/06/13 01:14:28;;;;;;;15.97;8.57;;;12.60;99.90;;;;;;5168491;27;20201;-69
2021/06/13 01:17:18;;;;;;;11.60;7.47;;;12.60;99.90;;;;;;5174730;27;20200;-69
2021/06/13 01:20:15;;;;;;;10.30;8.03;;;12.60;99.90;;;;;;5164592;27;20230;-69
2021/06/13 01:23:31;;;;;;;12.33;7.90;;;12.60;99.90;;;;;;5174426;27;20285;-69
2021/06/13 01:26:22;;;;;;;14.40;7.90;;;12.60;99.90;;;;;;5174954;27;20287;-69
2021/06/13 01:29:11;;;;;;;8.90;6.67;;;12.50;99.90;;;;;;5174508;27;20603;-69
2021/06/13 01:31:58;;;;;;;9.87;6.70;;;12.50;99.90;;;;;;5165594;27;20299;-69
2021/06/13 01:34:48;;;;;;;13.43;6.73;;;12.50;99.90;;;;;;5174974;27;20200;-69
2021/06/13 01:37:37;;;;;;;10.17;6.40;;;12.50;99.90;;;;;;5175305;27;20706;-69
2021/06/13 01:40:28;;;;;;;10.83;6.50;;;12.50;99.90;;;;;;5175492;27;20273;-69
2021/06/13 01:43:15;;;;;;;8.90;5.93;;;12.50;99.90;;;;;;5173692;27;20320;-69
2021/06/13 01:46:04;;;;;;;10.17;6.23;;;12.50;99.90;;;;;;5167724;27;20674;-68
2021/06/13 01:48:51;;;;;;;10.20;5.80;;;12.40;99.90;;;;;;5174844;27;20552;-69
2021/06/13 01:51:39;;;;;;;10.37;6.50;;;12.40;99.90;;;;;;5174479;27;20292;-69
2021/06/13 01:54:26;;;;;;;10.83;6.13;;;12.40;99.90;;;;;;5173234;27;20219;-69
2021/06/13 01:57:13;;;;;;;7.27;4.77;;;12.30;99.90;;;;;;5175427;27;20237;-68
2021/06/13 02:00:00;;;;;;;9.90;4.90;;;12.30;99.90;;;;;;5174804;27;20276;-68
2021/06/13 02:02:51;;;;;;;9.77;4.47;;;12.20;99.90;;;;;;5175380;27;20244;-68
2021/06/13 02:05:38;;;;;;;7.47;3.80;;;12.20;99.90;;;;;;5173250;27;20198;-69
2021/06/13 02:08:25;;;;;;;5.40;2.97;;;12.10;99.90;;;;;;5174413;27;20189;-69
2021/06/13 02:11:12;;;;;;;4.17;3.37;;;12.00;99.90;;;;;;5174581;27;20210;-69
2021/06/13 02:13:59;;;;;;;6.03;3.23;;;12.00;99.90;;;;;;5166714;27;20189;-68
2021/06/13 02:16:46;;;;;;;4.20;3.20;;;11.90;99.90;;;;;;5174632;27;20334;-68
2021/06/13 02:19:34;;;;;;;10.60;3.33;;;11.90;99.90;;;;;;5173369;27;20199;-69
2021/06/13 02:22:21;;;;;;;10.00;3.60;;;11.80;99.90;;;;;;5168141;27;20247;-68
2021/06/13 02:25:09;;;;;;;6.50;3.40;;;11.70;99.90;;;;;;5174231;27;20527;-68
2021/06/13 02:27:58;;;;;;;7.23;3.77;;;11.70;99.90;;;;;;5176185;27;20194;-68
2021/06/13 02:30:45;;;;;;;6.60;3.43;;;11.60;99.90;;;;;;5178466;27;20191;-68
2021/06/13 02:33:32;;;;;;;5.60;3.90;;;11.60;99.90;;;;;;5177408;27;20208;-68
2021/06/13 02:36:20;;;;;;;11.90;3.97;;;11.60;99.90;;;;;;5178010;27;20229;-68
2021/06/13 02:39:10;;;;;;;6.80;3.77;;;11.50;99.90;;;;;;5171268;27;20231;-68
2021/06/13 02:41:57;;;;;;;9.10;3.10;;;11.40;99.90;;;;;;5177823;27;20190;-68
2021/06/13 02:44:47;;;;;;;10.17;3.60;;;11.40;99.90;;;;;;5178418;27;20595;-67
2021/06/13 02:47:34;;;;;;;11.20;3.60;;;11.40;99.90;;;;;;5177410;27;20220;-67
2021/06/13 02:50:21;;;;;;;5.83;3.10;;;11.30;99.90;;;;;;5177752;27;20611;-68
2021/06/13 02:53:12;;;;;;;6.73;2.97;;;11.30;99.90;;;;;;5178180;27;20661;-68
2021/06/13 02:56:00;;;;;;;4.20;3.03;;;11.20;99.90;;;;;;5174270;27;20535;-68
2021/06/13 02:58:48;;;;;;;6.57;2.93;;;11.20;99.90;;;;;;5177847;27;20265;-68
2021/06/13 03:01:35;;;;;;;5.17;3.13;;;11.10;99.90;;;;;;5176534;27;20216;-68
2021/06/13 03:04:22;;;;;;;7.17;3.50;;;11.00;99.90;;;;;;5177463;27;20634;-68
2021/06/13 03:07:10;;;;;;;7.20;3.27;;;11.00;99.90;;;;;;5177806;27;20222;-68
2021/06/13 03:10:00;;;;;;;8.13;3.67;;;10.90;99.90;;;;;;5172312;27;20201;-68
2021/06/13 03:12:47;;;;;;;4.63;3.27;;;10.90;99.90;;;;;;5176849;27;20218;-68
2021/06/13 03:15:34;;;;;;;9.93;3.83;;;10.90;99.90;;;;;;5177823;27;20197;-68
2021/06/13 03:18:22;;;;;;;5.93;3.37;;;10.90;99.90;;;;;;5176426;27;20212;-68
2021/06/13 03:21:09;;;;;;;6.73;3.50;;;10.90;99.90;;;;;;5177918;27;20551;-68
2021/06/13 03:23:56;;;;;;;7.40;3.50;;;11.00;99.90;;;;;;5176845;27;20200;-68
2021/06/13 03:26:44;;;;;;;6.27;3.47;;;11.00;99.90;;;;;;5177468;27;20194;-68
2021/06/13 03:29:31;;;;;;;10.03;3.80;;;11.10;99.90;;;;;;5177662;27;20269;-68
2021/06/13 03:32:20;;;;;;;11.53;3.03;;;11.10;99.90;;;;;;5176947;27;20205;-68
2021/06/13 03:35:08;;;;;;;5.23;3.67;;;11.10;99.90;;;;;;5177051;27;20194;-68
2021/06/13 03:37:56;;;;;;;7.27;3.67;;;11.20;99.90;;;;;;5169570;27;20216;-67
2021/06/13 03:40:43;;;;;;;10.77;4.27;;;11.20;99.90;;;;;;5176916;27;20205;-68
2021/06/13 03:43:32;;;;;;;6.33;4.00;;;11.20;99.90;;;;;;5177222;27;20214;-68
2021/06/13 03:46:20;;;;;;;6.87;3.67;;;11.30;99.90;;;;;;5176296;27;20205;-68
2021/06/13 03:49:07;;;;;;;7.37;3.80;;;11.30;99.90;;;;;;5177137;27;20709;-67
2021/06/13 03:51:55;;;;;;;12.67;4.63;;;11.30;99.90;;;;;;5175655;27;20321;-67
2021/06/13 03:54:42;;;;;;;10.27;4.70;;;11.40;99.90;;;;;;5171293;27;20221;-68
2021/06/13 03:57:30;;;;;;;12.17;4.80;;;11.50;99.90;;;;;;5176979;27;20204;-68
2021/06/13 04:00:20;;;;;;;8.10;4.40;;;11.50;99.90;;;;;;5175461;27;20587;-68
2021/06/13 04:03:07;;;;;;;15.27;4.90;;;11.50;99.90;;;;;;5175884;27;20186;-67
2021/06/13 04:05:55;;;;;;;8.03;4.80;;;11.60;99.90;;;;;;5176471;27;20270;-68
2021/06/13 04:08:42;;;;;;;8.87;4.83;;;11.80;99.90;;;;;;5176311;27;20283;-68
2021/06/13 04:11:30;;;;;;;8.47;4.83;;;11.80;99.90;;;;;;5176681;27;20224;-68
2021/06/13 04:14:17;;;;;;;10.47;4.80;;;11.80;99.90;;;;;;5175205;27;20191;-67
2021/06/13 04:17:06;;;;;;;6.93;4.50;;;11.80;99.90;;;;;;5176847;27;20194;-69
2021/06/13 04:19:54;;;;;;;9.10;4.33;;;11.80;99.90;;;;;;5170505;27;20225;-67
2021/06/13 04:22:42;;;;;;;9.40;4.43;;;11.90;99.90;;;;;;5176652;27;20617;-67
2021/06/13 04:25:30;;;;;;;9.10;4.60;;;11.90;99.90;;;;;;5177060;27;20190;-67
2021/06/13 04:28:17;;;;;;;10.30;4.50;;;11.90;99.90;;;;;;5175572;27;20200;-68
2021/06/13 04:31:12;;;;;;;9.27;4.97;;;12.00;99.90;;;;;;5176772;27;20190;-67
2021/06/13 04:34:01;;;;;;;7.60;3.67;;;12.10;99.90;;;;;;5176693;27;20200;-67
2021/06/13 04:36:48;;;;;;;7.97;4.83;;;12.00;99.90;;;;;;5169119;27;20195;-67
2021/06/13 04:39:36;;;;;;;8.73;4.50;;;11.90;99.90;;;;;;5175724;27;20293;-68
2021/06/13 04:42:24;;;;;;;9.00;4.70;;;11.90;99.90;;;;;;5175011;27;20222;-67
2021/06/13 04:45:12;;;;;;;13.97;4.90;;;11.80;99.90;;;;;;5174130;27;20653;-68
2021/06/13 04:48:00;;;;;;;8.63;4.50;;;11.80;99.90;;;;;;5175214;27;20338;-67
2021/06/13 04:50:49;;;;;;;10.17;4.60;;;11.80;99.90;;;;;;5174143;27;20631;-67
2021/06/13 04:53:53;;;;;;;9.53;4.60;;;11.80;99.90;;;;;;5174125;27;20643;-67
2021/06/13 04:56:48;;;;;;;9.57;5.10;;;11.80;99.90;;;;;;5174662;27;20197;-68
2021/06/13 04:59:35;;;;;;;12.77;5.27;;;11.80;99.90;;;;;;5173697;27;20656;-67
2021/06/13 05:02:23;;;;;;;10.80;4.53;;;11.80;99.90;;;;;;5171828;27;20190;-67
2021/06/13 05:05:11;;;;;;;9.40;5.13;;;11.80;99.90;;;;;;5172924;27;20667;-67
2021/06/13 05:08:00;;;;;;;9.77;4.90;;;11.80;99.90;;;;;;5175154;27;20245;-67
2021/06/13 05:10:48;;;;;;;7.83;4.30;;;11.80;99.90;;;;;;5166459;27;20197;-67
2021/06/13 05:13:36;;;;;;;8.97;4.93;;;11.80;99.90;;;;;;5174662;27;20558;-67
2021/06/13 05:16:23;;;;;;;6.80;4.80;;;11.80;99.90;;;;;;5174663;27;20241;-67
2021/06/13 05:19:11;;;;;;;11.03;4.73;;;11.80;99.90;;;;;;5174455;27;20198;-69
2021/06/13 05:21:58;;;;;;;12.03;4.83;;;11.80;99.90;;;;;;5174465;27;20186;-67
2021/06/13 05:24:47;;;;;;;10.20;5.00;;;11.80;99.90;;;;;;5175358;27;20204;-67
2021/06/13 05:27:35;;;;;;;8.20;4.67;;;11.90;99.90;;;;;;5175245;27;20206;-67
2021/06/13 05:30:23;;;;;;;14.13;4.40;;;12.00;99.90;;;;;;5175216;27;20216;-67
2021/06/13 05:33:11;;;;;;;11.37;4.47;;;12.20;99.90;;;;;;5174918;27;20648;-67
2021/06/13 05:36:01;;;;;;;8.63;4.47;;;12.40;99.90;;;;;;5175068;27;20190;-67
2021/06/13 05:38:49;;;;;;;13.37;4.50;;;12.50;99.90;;;;;;5174649;27;20199;-67
2021/06/13 05:41:37;;;;;;;13.10;4.47;;;12.60;99.90;;;;;;5170156;27;20196;-67
2021/06/13 05:44:25;;;;;;;8.93;4.27;;;12.70;99.90;;;;;;5175123;27;20632;-67
2021/06/13 05:47:12;;;;;;;6.40;4.13;;;12.90;99.90;;;;;;5175295;27;20214;-67
2021/06/13 05:50:00;;;;;;;7.03;4.23;;;12.90;99.90;;;;;;5173908;27;20543;-67
2021/06/13 05:52:48;;;;;;;9.83;4.47;;;12.90;99.90;;;;;;5173790;27;20289;-67
2021/06/13 05:55:35;;;;;;;11.17;4.17;;;12.80;99.90;;;;;;5167431;27;20233;-68
2021/06/13 05:58:24;;;;;;;9.73;5.57;;;12.70;99.90;;;;;;5173710;27;20208;-67
2021/06/13 06:01:12;;;;;;;7.60;4.30;;;12.70;99.90;;;;;;5169511;27;20251;-67
2021/06/13 06:03:59;;;;;;;9.00;4.37;;;12.80;99.90;;;;;;5180042;27;20191;-67
2021/06/13 06:06:47;;;;;;;8.33;3.97;;;12.90;99.90;;;;;;5180563;27;20558;-69
2021/06/13 06:09:35;;;;;;;8.73;3.50;;;12.90;99.90;;;;;;5182074;27;20196;-70
2021/06/13 06:12:22;;;;;;;7.40;3.97;;;12.90;99.90;;;;;;5181962;27;20215;-70
2021/06/13 06:15:13;;;;;;;10.10;4.10;;;13.00;99.90;;;;;;5174336;27;20199;-70
2021/06/13 06:18:01;;;;;;;7.67;3.57;;;13.10;99.90;;;;;;5180973;27;20650;-70
2021/06/13 06:20:49;;;;;;;12.47;4.00;;;13.10;99.90;;;;;;5181520;27;20192;-70
2021/06/13 06:23:37;;;;;;;6.97;3.50;;;13.20;99.90;;;;;;5181110;27;20653;-70
2021/06/13 06:26:24;;;;;;;9.80;3.73;;;13.10;99.90;;;;;;5181358;27;20222;-71
2021/06/13 06:29:12;;;;;;;9.37;3.70;;;13.00;99.90;;;;;;5180926;27;20238;-70
2021/06/13 06:32:01;;;;;;;7.23;2.83;;;12.80;99.90;;;;;;5180280;27;20254;-70
2021/06/13 06:34:48;;;;;;;15.97;3.40;;;12.60;99.90;;;;;;5180394;27;20237;-70
2021/06/13 06:37:38;;;;;;;9.63;4.13;;;12.50;99.90;;;;;;5180985;27;20212;-70
2021/06/13 06:40:25;;;;;;;7.73;3.63;;;12.40;99.90;;;;;;5181428;27;20202;-71
2021/06/13 06:43:13;;;;;;;7.40;3.73;;;12.50;99.90;;;;;;5174616;27;20205;-71
2021/06/13 06:46:01;;;;;;;8.20;3.43;;;12.50;99.90;;;;;;5180126;27;20219;-70
2021/06/13 06:48:50;;;;;;;6.80;3.70;;;12.60;99.90;;;;;;5180269;27;20208;-70
2021/06/13 06:51:38;;;;;;;7.87;3.60;;;12.70;99.90;;;;;;5172919;27;20203;-70
2021/06/13 06:54:26;;;;;;;9.30;3.33;;;12.70;99.90;;;;;;5176607;27;20231;-69
2021/06/13 06:57:14;;;;;;;8.40;3.33;;;12.80;99.90;;;;;;5179783;27;20205;-72
2021/06/13 07:00:01;;;;;;;6.47;3.20;;;13.00;99.90;;;;;;5179865;27;20193;-73
2021/06/13 07:02:49;;;;;;;9.67;3.90;;;13.00;99.90;;;;;;5181272;27;20218;-72
2021/06/13 07:05:38;;;;;;;8.57;3.47;;;12.80;99.90;;;;;;5175246;27;20528;-71
2021/06/13 07:08:26;;;;;;;10.93;3.73;;;13.00;99.90;;;;;;5173006;27;20649;-71
2021/06/13 07:11:30;;;;;;;10.70;3.07;;;13.40;99.90;;;;;;5172074;27;20349;-70
2021/06/13 07:14:18;;;;;;;7.43;2.97;;;13.60;99.90;;;;;;5168091;27;20203;-70
2021/06/13 07:17:05;;;;;;;8.60;3.50;;;13.60;99.90;;;;;;5177582;27;20193;-70
2021/06/13 07:19:53;;;;;;;9.80;3.10;;;13.70;99.90;;;;;;5177313;27;20611;-70
2021/06/13 07:22:42;;;;;;;5.07;2.30;;;13.80;99.90;;;;;;5176133;27;20237;-69
2021/06/13 07:25:29;;;;;;;6.80;2.40;;;13.70;99.90;;;;;;5177669;27;20203;-71
2021/06/13 07:28:17;;;;;;;7.27;2.50;;;13.60;99.90;;;;;;5175412;27;20268;-71
2021/06/13 07:31:05;;;;;;;6.10;2.47;;;13.70;99.90;;;;;;5178082;27;20237;-71
2021/06/13 07:33:53;;;;;;;6.93;2.53;;;14.10;99.90;;;;;;5177107;27;20224;-71
2021/06/13 07:36:40;;;;;;;4.80;2.50;;;14.00;99.90;;;;;;5177210;27;20197;-72
2021/06/13 07:39:29;;;;;;;7.33;2.60;;;14.00;99.90;;;;;;5176959;27;20198;-70
2021/06/13 07:42:17;;;;;;;12.30;3.53;;;13.90;99.90;;;;;;5177776;27;20198;-69
2021/06/13 07:45:06;;;;;;;6.83;2.80;;;13.70;99.90;;;;;;5169000;27;20201;-72
2021/06/13 07:47:54;;;;;;;10.03;2.87;;;13.40;99.90;;;;;;5176801;27;20767;-71
2021/06/13 07:50:42;;;;;;;8.20;3.10;;;13.30;99.90;;;;;;5169098;27;20210;-70
2021/06/13 07:53:32;;;;;;;5.43;2.30;;;13.10;99.90;;;;;;5176400;27;20213;-71
2021/06/13 07:56:21;;;;;;;6.87;2.80;;;13.00;99.90;;;;;;5176159;27;20193;-73
2021/06/13 07:59:08;;;;;;;6.63;2.80;;;13.00;99.90;;;;;;5170832;27;20584;-72
2021/06/13 08:01:56;;;;;;;9.60;2.60;;;13.10;99.90;;;;;;5176168;27;20270;-72
2021/06/13 08:04:47;;;;;;;7.33;2.60;;;13.40;99.90;;;;;;5176428;27;20215;-69
2021/06/13 08:07:35;;;;;;;8.77;1.90;;;13.50;99.90;;;;;;5175966;27;20194;-70
2021/06/13 08:10:23;;;;;;;8.10;2.30;;;13.50;99.90;;;;;;5176369;27;20195;-66
2021/06/13 08:13:12;;;;;;;6.37;2.40;;;13.60;99.90;;;;;;5176135;27;20213;-66
2021/06/13 08:16:00;;;;;;;4.37;2.07;;;13.80;99.90;;;;;;5175502;27;20194;-66
2021/06/13 08:18:47;;;;;;;8.10;2.30;;;13.90;99.90;;;;;;5167231;27;20620;-68
2021/06/13 08:21:35;;;;;;;10.00;2.40;;;13.90;99.90;;;;;;5174940;27;20217;-71
2021/06/13 08:24:22;;;;;;;4.97;2.10;;;13.90;99.90;;;;;;5174767;27;20240;-69
2021/06/13 08:27:10;;;;;;;5.63;2.20;;;14.20;99.90;;;;;;5175331;27;20207;-69
2021/06/13 08:29:59;;;;;;;3.97;1.80;;;14.70;99.90;;;;;;5175783;27;20199;-71
2021/06/13 08:32:47;;;;;;;11.23;2.63;;;15.30;99.90;;;;;;5174306;27;20213;-71
2021/06/13 08:35:34;;;;;;;4.10;1.90;;;15.60;99.90;;;;;;5175353;27;20194;-70
2021/06/13 08:38:23;;;;;;;5.47;2.83;;;15.80;99.90;;;;;;5175089;27;20204;-71
2021/06/13 08:41:11;;;;;;;4.33;1.50;;;15.80;99.90;;;;;;5166443;27;20643;-71
2021/06/13 08:43:59;;;;;;;7.47;1.90;;;15.30;99.90;;;;;;5175335;27;20217;-67
2021/06/13 08:46:47;;;;;;;10.80;2.13;;;14.90;99.90;;;;;;5170394;27;20210;-68
2021/06/13 08:49:35;;;;;;;5.40;2.23;;;14.40;99.90;;;;;;5172320;27;20197;-69
2021/06/13 08:52:22;;;;;;;7.50;2.10;;;14.30;99.90;;;;;;5173060;27;20196;-70
2021/06/13 08:55:11;;;;;;;5.10;2.10;;;14.30;99.90;;;;;;5175894;27;20225;-69
2021/06/13 08:57:58;;;;;;;5.67;2.10;;;14.40;99.90;;;;;;5175414;27;20199;-70
2021/06/13 09:00:47;;;;;;;7.63;2.10;;;14.10;99.90;;;;;;5174784;27;20209;-69
2021/06/13 09:03:36;;;;;;;7.90;2.20;;;14.10;99.90;;;;;;5175778;27;20641;-71
2021/06/13 09:06:23;;;;;;;4.97;1.90;;;14.10;99.90;;;;;;5174325;27;20343;-70
2021/06/13 09:09:17;;;;;;;5.87;2.20;;;14.20;99.90;;;;;;5174906;27;20554;-70
2021/06/13 09:12:06;;;;;;;3.50;1.80;;;14.20;99.90;;;;;;5175408;27;20209;-71
2021/06/13 09:14:55;;;;;;;12.77;2.33;;;14.30;99.90;;;;;;5174704;27;20523;-71
2021/06/13 09:17:43;;;;;;;8.13;2.27;;;14.50;99.90;;;;;;5174827;27;20199;-71
2021/06/13 09:20:31;;;;;;;6.17;1.87;;;14.60;99.90;;;;;;5174885;27;20720;-71
2021/06/13 09:23:19;;;;;;;6.60;2.30;;;14.70;99.90;;;;;;5174741;27;20660;-69
2021/06/13 09:26:07;;;;;;;6.27;1.80;;;15.00;99.90;;;;;;5173760;27;20203;-70
2021/06/13 09:28:55;;;;;;;2.73;1.63;;;15.40;99.90;;;;;;5175804;27;20212;-69
2021/06/13 09:31:43;;;;;;;9.40;2.10;;;15.50;99.90;;;;;;5174507;27;20196;-70
2021/06/13 09:34:30;;;;;;;7.43;1.80;;;15.10;99.90;;;;;;5165502;27;20203;-70
2021/06/13 09:37:19;;;;;;;5.03;2.00;;;15.10;99.90;;;;;;5174771;27;20200;-69
2021/06/13 09:40:10;;;;;;;4.97;2.00;;;15.00;99.90;;;;;;5174339;27;20286;-70
2021/06/13 09:42:57;;;;;;;6.37;1.83;;;14.90;99.90;;;;;;5174428;27;20547;-70
2021/06/13 09:45:59;;;;;;;9.47;2.47;;;15.00;99.90;;;;;;5174553;27;20245;-69
2021/06/13 09:48:47;;;;;;;3.43;1.73;;;15.00;99.90;;;;;;5169889;27;20599;-70
2021/06/13 09:51:35;;;;;;;6.23;2.00;;;15.00;99.90;;;;;;5174572;27;20191;-70
2021/06/13 09:54:26;;;;;;;3.27;1.53;;;15.00;99.90;;;;;;5174216;27;20727;-70
2021/06/13 09:57:13;;;;;;;5.47;2.10;;;15.10;99.90;;;;;;5173791;27;20237;-70
2021/06/13 10:00:25;;;;;;;4.37;1.77;;;15.30;99.90;;;;;;5173452;27;20227;-69
2021/06/13 10:03:22;;;;;;;5.23;1.87;;;15.70;99.90;;;;;;5174722;27;20191;-66
2021/06/13 10:06:10;;;;;;;5.33;1.57;;;15.50;99.90;;;;;;5174241;27;20192;-66
2021/06/13 10:08:58;;;;;;;4.20;1.50;;;15.40;99.90;;;;;;5173495;27;20595;-66
2021/06/13 10:11:50;;;;;;;6.20;1.93;;;15.10;99.90;;;;;;5173793;27;20214;-70
2021/06/13 10:14:37;;;;;;;3.37;1.60;;;14.90;99.90;;;;;;5174056;27;20679;-70
2021/06/13 10:17:30;;;;;;;4.20;2.33;;;14.70;99.90;;;;;;5174643;27;20207;-68
2021/06/13 10:20:25;;;;;;;4.83;2.10;;;14.70;99.90;;;;;;5174319;27;20204;-70
2021/06/13 10:23:12;;;;;;;6.13;1.83;;;14.70;99.90;;;;;;5170062;27;20266;-70
2021/06/13 10:26:00;;;;;;;3.90;1.67;;;15.00;99.90;;;;;;5172839;27;20196;-70
2021/06/13 10:28:49;;;;;;;4.20;1.83;;;15.10;99.90;;;;;;5172776;27;20671;-70
2021/06/13 10:31:36;;;;;;;7.30;1.70;;;15.40;99.90;;;;;;5173149;27;20198;-71
2021/06/13 10:34:24;;;;;;;5.87;1.83;;;15.70;99.90;;;;;;5174354;27;20213;-66
2021/06/13 10:37:13;;;;;;;5.23;1.63;;;15.90;99.90;;;;;;5174346;27;20193;-66
2021/06/13 10:40:02;;;;;;;3.93;1.63;;;15.90;99.90;;;;;;5173386;27;20203;-65
2021/06/13 10:42:49;;;;;;;5.10;2.20;;;16.00;99.90;;;;;;5174060;27;20198;-66
2021/06/13 10:45:40;;;;;;;5.13;1.60;;;16.10;99.90;;;;;;5174228;27;20273;-66
2021/06/13 10:48:28;;;;;;;5.53;1.77;;;16.40;99.90;;;;;;5174071;27;20220;-66
2021/06/13 10:51:36;;;;;;;11.17;1.83;;;16.60;99.90;;;;;;5179142;27;20566;-66
2021/06/13 10:54:31;;;;;;;5.87;2.00;;;16.80;99.90;;;;;;5174464;27;20588;-69
2021/06/13 10:57:32;;;;;;;7.33;1.73;;;16.40;99.90;;;;;;5177992;27;20201;-70
2021/06/13 11:00:29;;;;;;;6.37;1.87;;;16.20;99.90;;;;;;5176589;27;20198;-69
2021/06/13 11:03:18;;;;;;;5.77;1.80;;;16.00;99.90;;;;;;5176822;27;20198;-70
2021/06/13 11:06:05;;;;;;;11.57;2.00;;;16.10;99.90;;;;;;5177977;27;20224;-69
2021/06/13 11:09:01;;;;;;;8.90;2.27;;;15.90;99.90;;;;;;5176208;27;20192;-70
2021/06/13 11:11:55;;;;;;;10.97;2.47;;;16.20;99.90;;;;;;5176922;27;20194;-68
2021/06/13 11:14:53;;;;;;;8.13;2.37;;;16.60;99.90;;;;;;5178035;27;20205;-66
2021/06/13 11:17:53;;;;;;;8.00;2.37;;;16.70;99.90;;;;;;5177268;27;20319;-69
2021/06/13 11:20:48;;;;;;;7.03;2.40;;;16.40;99.90;;;;;;5177563;27;20719;-69
2021/06/13 11:23:54;;;;;;;5.60;2.07;;;16.00;99.90;;;;;;5178108;27;20276;-70
2021/06/13 11:26:54;;;;;;;8.33;2.30;;;16.00;99.90;;;;;;5176369;27;20200;-70
2021/06/13 11:29:55;;;;;;;10.03;2.00;;;15.60;99.90;;;;;;5176462;27;20682;-70
2021/06/13 11:32:53;;;;;;;6.20;2.40;;;15.40;99.90;;;;;;5171365;27;20196;-69
2021/06/13 11:35:46;;;;;;;9.27;2.30;;;15.10;99.90;;;;;;5177164;27;20198;-70
2021/06/13 11:38:34;;;;;;;6.60;2.23;;;14.80;99.90;;;;;;5176556;27;20662;-70
2021/06/13 11:41:25;;;;;;;10.63;2.30;;;14.70;99.90;;;;;;5169286;27;20305;-69
2021/06/13 11:44:13;;;;;;;7.03;2.63;;;14.60;99.90;;;;;;5177632;27;20200;-69
2021/06/13 11:47:04;;;;;;;7.87;2.10;;;14.40;99.90;;;;;;5177827;27;20583;-69
2021/06/13 11:49:53;;;;;;;7.93;2.30;;;14.30;99.90;;;;;;5176066;27;20190;-69
2021/06/13 11:53:12;;;;;;;6.47;2.50;;;14.50;99.90;;;;;;5177547;27;20205;-69
2021/06/13 11:56:03;;;;;;;8.53;2.27;;;14.70;99.90;;;;;;5176176;27;20642;-69
2021/06/13 11:58:57;;;;;;;7.93;2.40;;;15.10;99.90;;;;;;5170487;27;20212;-69
2021/06/13 12:01:47;;;;;;;7.30;2.33;;;15.50;99.90;;;;;;5176763;27;20208;-69
2021/06/13 12:04:34;;;;;;;7.83;2.10;;;15.80;99.90;;;;;;5176795;27;20230;-69
2021/06/13 12:07:22;;;;;;;6.13;1.80;;;15.70;99.90;;;;;;5175539;27;20193;-68
2021/06/13 12:10:21;;;;;;;8.70;1.87;;;15.60;99.90;;;;;;5176666;27;20196;-69
2021/06/13 12:13:08;;;;;;;7.93;2.80;;;15.60;99.90;;;;;;5175143;27;20188;-70
2021/06/13 12:15:56;;;;;;;5.53;2.00;;;15.20;99.90;;;;;;5174806;27;20193;-70
2021/06/13 12:18:57;;;;;;;5.47;2.00;;;15.10;99.90;;;;;;5174771;27;20201;-70
2021/06/13 12:21:45;;;;;;;7.20;2.33;;;15.30;99.90;;;;;;5176125;27;20200;-70
2021/06/13 12:24:50;;;;;;;6.03;2.40;;;15.50;99.90;;;;;;5174944;27;20214;-70
2021/06/13 12:27:39;;;;;;;4.23;2.00;;;15.90;99.90;;;;;;5172184;27;20729;-70
2021/06/13 12:30:27;;;;;;;10.93;1.93;;;16.10;99.90;;;;;;5175512;27;20210;-70
2021/06/13 12:33:15;;;;;;;4.77;2.00;;;15.90;99.90;;;;;;5174804;27;20200;-69
2021/06/13 12:36:07;;;;;;;6.67;2.20;;;16.40;99.90;;;;;;5168114;27;20264;-70
2021/06/13 12:38:54;;;;;;;10.23;1.83;;;16.50;99.90;;;;;;5175907;27;20235;-70
2021/06/13 12:41:42;;;;;;;4.23;1.80;;;16.20;99.90;;;;;;5176678;27;20205;-70
2021/06/13 12:44:31;;;;;;;6.47;1.73;;;15.90;99.90;;;;;;5175830;27;20189;-70
2021/06/13 12:47:18;;;;;;;9.67;2.00;;;15.90;99.90;;;;;;5174950;27;20209;-70
2021/06/13 12:50:07;;;;;;;6.87;2.03;;;16.00;99.90;;;;;;5175794;27;20655;-70
2021/06/13 12:52:56;;;;;;;7.30;2.00;;;16.10;99.90;;;;;;5175717;27;20196;-69
2021/06/13 12:55:44;;;;;;;4.70;1.80;;;16.30;99.90;;;;;;5175500;27;20232;-70
2021/06/13 12:58:34;;;;;;;5.30;1.90;;;16.60;99.90;;;;;;5176137;27;20704;-69
2021/06/13 13:01:24;;;;;;;6.00;2.20;;;16.90;99.90;;;;;;5174424;27;20196;-69
2021/06/13 13:04:11;;;;;;;5.73;2.23;;;16.90;99.90;;;;;;5169035;27;20185;-70
2021/06/13 13:06:59;;;;;;;7.03;2.13;;;16.80;99.90;;;;;;5173886;27;20199;-70
2021/06/13 13:10:05;;;;;;;8.50;2.10;;;16.60;99.90;;;;;;5173942;27;20240;-70
2021/06/13 13:12:54;;;;;;;9.80;2.20;;;16.40;99.90;;;;;;5174619;27;20204;-70
2021/06/13 13:15:42;;;;;;;6.07;1.90;;;15.80;99.90;;;;;;5175407;27;20207;-70
2021/06/13 13:18:38;;;;;;;11.20;2.33;;;15.50;99.90;;;;;;5175248;27;20327;-70
2021/06/13 13:21:31;;;;;;;5.70;1.90;;;15.30;99.90;;;;;;5174395;27;20200;-70
2021/06/13 13:24:28;;;;;;;7.33;2.30;;;15.40;99.90;;;;;;5175144;27;20256;-70
2021/06/13 13:27:17;;;;;;;4.73;2.00;;;15.60;99.90;;;;;;5174101;27;20206;-68
2021/06/13 13:30:06;;;;;;;5.77;1.90;;;16.10;99.90;;;;;;5174376;27;20749;-70
2021/06/13 13:32:54;;;;;;;4.77;1.90;;;16.40;99.90;;;;;;5159023;27;20193;-70
2021/06/13 13:35:44;;;;;;;4.53;1.90;;;16.70;99.90;;;;;;5174710;27;20213;-69
2021/06/13 13:38:37;;;;;;;6.43;1.80;;;16.90;99.90;;;;;;5173570;27;20197;-70
2021/06/13 13:41:35;;;;;;;8.90;1.97;;;16.70;99.90;;;;;;5165805;27;20189;-69
2021/06/13 13:44:23;;;;;;;9.23;2.00;;;16.50;99.90;;;;;;5174303;27;20196;-70
2021/06/13 13:47:12;;;;;;;8.40;2.07;;;16.70;99.90;;;;;;5174010;27;20278;-70
2021/06/13 13:50:01;;;;;;;11.47;2.03;;;16.50;99.90;;;;;;5174124;27;20283;-71
2021/06/13 13:52:50;;;;;;;7.73;2.10;;;16.20;99.90;;;;;;5175013;27;20199;-70
2021/06/13 13:55:46;;;;;;;6.73;2.30;;;16.00;99.90;;;;;;5174869;27;20597;-67
2021/06/13 13:58:34;;;;;;;7.13;1.93;;;15.70;99.90;;;;;;5174129;27;20280;-68
2021/06/13 14:01:21;;;;;;;4.57;1.90;;;15.60;99.90;;;;;;5174146;27;20591;-67
2021/06/13 14:04:09;;;;;;;10.10;2.00;;;15.60;99.90;;;;;;5174464;27;20208;-70
2021/06/13 14:06:58;;;;;;;7.43;1.80;;;15.80;99.90;;;;;;5172644;27;20268;-70
2021/06/13 14:09:47;;;;;;;10.20;2.53;;;15.90;99.90;;;;;;5174174;27;20550;-70
2021/06/13 14:12:34;;;;;;;7.40;1.60;;;16.20;99.90;;;;;;5173956;27;20237;-70
2021/06/13 14:15:22;;;;;;;4.90;1.70;;;16.50;99.90;;;;;;5172391;27;20221;-70
2021/06/13 14:18:10;;;;;;;8.20;1.80;;;16.70;99.90;;;;;;5153475;27;20190;-70
2021/06/13 14:20:58;;;;;;;8.87;1.87;;;17.00;99.90;;;;;;5153884;27;20196;-70
2021/06/13 14:23:45;;;;;;;6.57;1.80;;;17.00;99.90;;;;;;5155467;27;20198;-70
2021/06/13 14:26:34;;;;;;;5.87;2.00;;;17.00;99.90;;;;;;5156596;27;20228;-70
2021/06/13 14:29:23;;;;;;;6.63;1.70;;;16.90;99.90;;;;;;5157560;27;20195;-70
2021/06/13 14:32:11;;;;;;;6.30;2.00;;;16.80;99.90;;;;;;5158124;27;20208;-71
2021/06/13 14:34:58;;;;;;;4.83;1.77;;;16.70;99.90;;;;;;5156567;27;20252;-70
2021/06/13 14:37:46;;;;;;;5.43;2.23;;;16.80;99.90;;;;;;5157530;27;20654;-70